createdAt,value
2018-09-17T00:01:17.131Z,95902.00
2018-09-17T00:03:46.318Z,95902.00
2018-09-17T00:06:15.555Z,95902.00
2018-09-17T00:08:44.713Z,95900.00
2018-09-17T00:11:14.418Z,95905.00
2018-09-17T00:13:43.530Z,95902.00
2018-09-17T00:16:12.694Z,95905.00
2018-09-17T00:18:41.833Z,95894.00
2018-09-17T00:21:11.223Z,95888.00
2018-09-17T00:23:41.412Z,95886.00
2018-09-17T00:26:11.350Z,95894.00
2018-09-17T00:28:41.429Z,95886.00
2018-09-17T00:31:11.448Z,95885.00
2018-09-17T00:33:41.466Z,95880.00
2018-09-17T00:36:11.330Z,95878.00
2018-09-17T00:38:41.380Z,95892.00
2018-09-17T00:41:11.383Z,95888.00
2018-09-17T00:43:41.495Z,95887.00
2018-09-17T00:46:11.591Z,95888.00
2018-09-17T00:48:41.503Z,95881.00
2018-09-17T00:51:11.506Z,95892.00
2018-09-17T00:53:41.550Z,95882.00
2018-09-17T00:56:11.643Z,95890.00
2018-09-17T00:58:41.501Z,95888.00
2018-09-17T01:01:11.619Z,95885.00
2018-09-17T01:03:41.558Z,95884.00
2018-09-17T01:06:11.746Z,95891.00
2018-09-17T01:08:41.540Z,95880.00
2018-09-17T01:11:11.770Z,95888.00
2018-09-17T01:13:41.690Z,95899.00
2018-09-17T01:16:11.701Z,95885.00
2018-09-17T01:18:41.695Z,95891.00
2018-09-17T01:21:11.805Z,95887.00
2018-09-17T01:23:41.762Z,95887.00
2018-09-17T01:26:11.754Z,95893.00
2018-09-17T01:28:41.717Z,95889.00
2018-09-17T01:31:11.757Z,95895.00
2018-09-17T01:33:41.726Z,95890.00
2018-09-17T01:36:11.846Z,95885.00
2018-09-17T01:38:41.873Z,95888.00
2018-09-17T01:41:11.846Z,95871.00
2018-09-17T01:43:41.937Z,95877.00
2018-09-17T01:46:11.955Z,95884.00
2018-09-17T01:48:41.952Z,95878.00
2018-09-17T01:51:11.958Z,95873.00
2018-09-17T01:53:42.036Z,95875.00
2018-09-17T01:56:12.026Z,95874.00
2018-09-17T01:58:42.038Z,95874.00
2018-09-17T02:01:12.066Z,95877.00
2018-09-17T02:03:42.094Z,95871.00
2018-09-17T02:06:12.065Z,95873.00
2018-09-17T02:08:42.049Z,95875.00
2018-09-17T02:11:12.113Z,95865.00
2018-09-17T02:13:42.126Z,95870.00
2018-09-17T02:16:12.185Z,95873.00
2018-09-17T02:18:42.039Z,95868.00
2018-09-17T02:21:12.626Z,95859.00
2018-09-17T02:23:42.347Z,95872.00
2018-09-17T02:26:12.498Z,95870.00
2018-09-17T02:28:42.211Z,95870.00
2018-09-17T02:31:12.266Z,95870.00
2018-09-17T02:33:42.149Z,95869.00
2018-09-17T02:36:12.342Z,95872.00
2018-09-17T02:38:42.255Z,95874.00
2018-09-17T02:41:12.330Z,95871.00
2018-09-17T02:43:42.254Z,95868.00
2018-09-17T02:46:12.495Z,95869.00
2018-09-17T02:48:42.280Z,95866.00
2018-09-17T02:51:12.355Z,95869.00
2018-09-17T02:53:42.521Z,95874.00
2018-09-17T02:56:12.397Z,95873.00
2018-09-17T02:58:42.494Z,95881.00
2018-09-17T03:01:13.751Z,95883.00
2018-09-17T03:03:42.851Z,95883.00
2018-09-17T03:06:12.510Z,95882.00
2018-09-17T03:08:42.540Z,95878.00
2018-09-17T03:11:19.234Z,95886.00
2018-09-17T03:13:48.460Z,95886.00
2018-09-17T03:16:17.662Z,95891.00
2018-09-17T03:18:54.278Z,95884.00
2018-09-17T03:21:23.477Z,95890.00
2018-09-17T03:23:52.860Z,95884.00
2018-09-17T03:26:22.375Z,95888.00
2018-09-17T03:28:51.521Z,95887.00
2018-09-17T03:31:20.598Z,95896.00
2018-09-17T03:33:49.814Z,95897.00
2018-09-17T03:36:18.973Z,95901.00
2018-09-17T03:38:49.128Z,95894.00
2018-09-17T03:41:19.301Z,95908.00
2018-09-17T03:43:49.977Z,95907.00
2018-09-17T03:46:19.163Z,95911.00
2018-09-17T03:48:48.339Z,95905.00
2018-09-17T03:51:17.974Z,95912.00
2018-09-17T03:53:47.097Z,95914.00
2018-09-17T03:56:16.353Z,95905.00
2018-09-17T03:58:46.094Z,95912.00
2018-09-17T04:01:15.232Z,95907.00
2018-09-17T04:03:44.477Z,95904.00
2018-09-17T04:06:13.658Z,95910.00
2018-09-17T04:08:43.038Z,95916.00
2018-09-17T04:11:12.963Z,95908.00
2018-09-17T04:13:42.971Z,95910.00
2018-09-17T04:16:13.051Z,95909.00
2018-09-17T04:18:43.051Z,95914.00
2018-09-17T04:21:13.030Z,95908.00
2018-09-17T04:23:43.161Z,95909.00
2018-09-17T04:26:13.419Z,95910.00
2018-09-17T04:28:43.125Z,95915.00
2018-09-17T04:31:13.140Z,95920.00
2018-09-17T04:33:43.937Z,95920.00
2018-09-17T04:36:13.751Z,95923.00
2018-09-17T04:38:43.122Z,95921.00
2018-09-17T04:41:13.222Z,95925.00
2018-09-17T04:43:43.238Z,95927.00
2018-09-17T04:46:13.306Z,95924.00
2018-09-17T04:48:43.335Z,95928.00
2018-09-17T04:51:13.190Z,95918.00
2018-09-17T04:53:43.369Z,95927.00
2018-09-17T04:56:13.490Z,95933.00
2018-09-17T04:58:43.287Z,95934.00
2018-09-17T05:01:13.450Z,95930.00
2018-09-17T05:03:43.466Z,95931.00
2018-09-17T05:06:13.442Z,95937.00
2018-09-17T05:08:43.553Z,95939.00
2018-09-17T05:11:13.526Z,95936.00
2018-09-17T05:13:43.605Z,95944.00
2018-09-17T05:16:13.518Z,95942.00
2018-09-17T05:18:43.530Z,95939.00
2018-09-17T05:21:13.684Z,95949.00
2018-09-17T05:23:43.566Z,95953.00
2018-09-17T05:26:13.647Z,95947.00
2018-09-17T05:28:43.701Z,95956.00
2018-09-17T05:31:13.700Z,95959.00
2018-09-17T05:33:43.604Z,95960.00
2018-09-17T05:36:13.674Z,95966.00
2018-09-17T05:38:43.779Z,95971.00
2018-09-17T05:41:13.504Z,95973.00
2018-09-17T05:43:43.941Z,95973.00
2018-09-17T05:46:13.762Z,95972.00
2018-09-17T05:48:43.775Z,95977.00
2018-09-17T05:51:13.782Z,95980.00
2018-09-17T05:53:43.889Z,95975.00
2018-09-17T05:56:13.890Z,95983.00
2018-09-17T05:58:43.920Z,95981.00
2018-09-17T06:01:13.843Z,95983.00
2018-09-17T06:03:43.998Z,95985.00
2018-09-17T06:06:13.965Z,95987.00
2018-09-17T06:08:44.046Z,95986.00
2018-09-17T06:11:14.020Z,95989.00
2018-09-17T06:13:44.094Z,95984.00
2018-09-17T06:16:14.079Z,95989.00
2018-09-17T06:18:44.067Z,95981.00
2018-09-17T06:21:13.993Z,95977.00
2018-09-17T06:23:44.133Z,95976.00
2018-09-17T06:26:14.096Z,95985.00
2018-09-17T06:28:44.128Z,95981.00
2018-09-17T06:31:14.221Z,95986.00
2018-09-17T06:33:44.234Z,95991.00
2018-09-17T06:36:14.230Z,95994.00
2018-09-17T06:38:44.356Z,95991.00
2018-09-17T06:41:14.282Z,95992.00
2018-09-17T06:43:44.317Z,95992.00
2018-09-17T06:46:14.215Z,95988.00
2018-09-17T06:48:44.297Z,95985.00
2018-09-17T06:51:14.406Z,95987.00
2018-09-17T06:53:44.384Z,95991.00
2018-09-17T06:56:14.570Z,95988.00
2018-09-17T06:58:44.525Z,95981.00
2018-09-17T07:01:14.538Z,95987.00
2018-09-17T07:03:44.577Z,95986.00
2018-09-17T07:06:14.588Z,95986.00
2018-09-17T07:08:44.530Z,95987.00
2018-09-17T07:11:14.640Z,95989.00
2018-09-17T07:13:44.558Z,95986.00
2018-09-17T07:16:14.647Z,95986.00
2018-09-17T07:18:44.653Z,95982.00
2018-09-17T07:21:14.669Z,95977.00
2018-09-17T07:23:44.669Z,95983.00
2018-09-17T07:26:14.694Z,95986.00
2018-09-17T07:28:44.721Z,95984.00
2018-09-17T07:31:14.674Z,95977.00
2018-09-17T07:33:44.770Z,95974.00
2018-09-17T07:36:14.861Z,95973.00
2018-09-17T07:38:44.917Z,95976.00
2018-09-17T07:41:14.762Z,95978.00
2018-09-17T07:43:44.888Z,95980.00
2018-09-17T07:46:14.936Z,95965.00
2018-09-17T07:48:44.824Z,95965.00
2018-09-17T07:51:15.912Z,95962.00
2018-09-17T07:53:45.189Z,95961.00
2018-09-17T07:56:14.847Z,95953.00
2018-09-17T07:58:45.021Z,95951.00
2018-09-17T08:01:15.082Z,95949.00
2018-09-17T08:03:44.955Z,95950.00
2018-09-17T08:06:15.195Z,95946.00
2018-09-17T08:08:45.090Z,95941.00
2018-09-17T08:11:15.063Z,95951.00
2018-09-17T08:13:45.073Z,95950.00
2018-09-17T08:16:15.106Z,95955.00
2018-09-17T08:18:45.115Z,95945.00
2018-09-17T08:21:15.218Z,95952.00
2018-09-17T08:23:45.230Z,95950.00
2018-09-17T08:26:15.272Z,95961.00
2018-09-17T08:28:45.282Z,95962.00
2018-09-17T08:31:15.214Z,95963.00
2018-09-17T08:33:45.294Z,95957.00
2018-09-17T08:36:15.342Z,95975.00
2018-09-17T08:38:45.510Z,95956.00
2018-09-17T08:41:15.359Z,95960.00
2018-09-17T08:43:45.273Z,95957.00
2018-09-17T08:46:15.473Z,95957.00
2018-09-17T08:48:45.365Z,95957.00
2018-09-17T08:51:15.358Z,95953.00
2018-09-17T08:53:45.448Z,95958.00
2018-09-17T08:56:20.429Z,95949.00
2018-09-17T08:58:54.797Z,95942.00
2018-09-17T09:01:34.133Z,95942.00
2018-09-17T09:04:08.762Z,95938.00
2018-09-17T09:06:43.050Z,95947.00
2018-09-17T09:09:13.356Z,95938.00
2018-09-17T09:11:47.742Z,95932.00
2018-09-17T09:14:22.193Z,95932.00
2018-09-17T09:16:51.460Z,95928.00
2018-09-17T09:19:20.634Z,95938.00
2018-09-17T09:21:49.821Z,95936.00
2018-09-17T09:24:18.982Z,95933.00
2018-09-17T09:26:48.227Z,95934.00
2018-09-17T09:29:17.326Z,95932.00
2018-09-17T09:31:46.454Z,95931.00
2018-09-17T09:34:15.869Z,95926.00
2018-09-17T09:36:45.966Z,95922.00
2018-09-17T09:39:15.972Z,95922.00
2018-09-17T09:41:45.850Z,95918.00
2018-09-17T09:44:16.021Z,95916.00
2018-09-17T09:46:46.010Z,95912.00
2018-09-17T09:49:16.026Z,95912.00
2018-09-17T09:51:46.030Z,95910.00
2018-09-17T09:54:16.115Z,95912.00
2018-09-17T09:56:46.054Z,95901.00
2018-09-17T09:59:16.052Z,95910.00
2018-09-17T10:01:51.354Z,95907.00
2018-09-17T10:04:23.514Z,95907.00
2018-09-17T10:06:53.218Z,95905.00
2018-09-17T10:09:27.634Z,95904.00
2018-09-17T10:12:02.173Z,95901.00
2018-09-17T10:14:36.621Z,95902.00
2018-09-17T10:17:10.945Z,95899.00
2018-09-17T10:19:45.463Z,95890.00
2018-09-17T10:22:14.597Z,95894.00
2018-09-17T10:24:43.837Z,95889.00
2018-09-17T10:27:12.998Z,95894.00
2018-09-17T10:29:42.207Z,95883.00
2018-09-17T10:32:11.673Z,95879.00
2018-09-17T10:34:40.810Z,95875.00
2018-09-17T10:37:10.224Z,95876.00
2018-09-17T10:39:39.475Z,95868.00
2018-09-17T10:42:08.653Z,95862.00
2018-09-17T10:44:37.834Z,95873.00
2018-09-17T10:47:06.989Z,95864.00
2018-09-17T10:49:36.162Z,95867.00
2018-09-17T10:52:05.480Z,95861.00
2018-09-17T10:54:34.686Z,95863.00
2018-09-17T10:57:03.963Z,95861.00
2018-09-17T10:59:33.148Z,95855.00
2018-09-17T11:02:02.415Z,95859.00
2018-09-17T11:04:31.639Z,95851.00
2018-09-17T11:07:00.845Z,95851.00
2018-09-17T11:09:29.982Z,95848.00
2018-09-17T11:11:59.190Z,95843.00
2018-09-17T11:14:28.414Z,95845.00
2018-09-17T11:16:57.652Z,95836.00
2018-09-17T11:19:27.290Z,95836.00
2018-09-17T11:21:56.378Z,95831.00
2018-09-17T11:24:25.517Z,95830.00
2018-09-17T11:26:54.770Z,95835.00
2018-09-17T11:29:23.897Z,95828.00
2018-09-17T11:31:53.134Z,95824.00
2018-09-17T11:34:22.366Z,95821.00
2018-09-17T11:36:51.653Z,95820.00
2018-09-17T11:39:20.761Z,95812.00
2018-09-17T11:41:50.048Z,95816.00
2018-09-17T11:44:19.247Z,95814.00
2018-09-17T11:46:48.419Z,95814.00
2018-09-17T11:49:17.633Z,95806.00
2018-09-17T11:51:47.122Z,95808.00
2018-09-17T11:54:17.282Z,95805.00
2018-09-17T11:56:47.261Z,95801.00
2018-09-17T11:59:17.290Z,95804.00
2018-09-17T12:01:55.503Z,95798.00
2018-09-17T12:04:30.188Z,95800.00
2018-09-17T12:07:04.566Z,95791.00
2018-09-17T12:09:33.845Z,95793.00
2018-09-17T12:12:02.993Z,95786.00
2018-09-17T12:14:32.127Z,95784.00
2018-09-17T12:17:01.371Z,95779.00
2018-09-17T12:19:30.554Z,95780.00
2018-09-17T12:21:59.757Z,95785.00
2018-09-17T12:24:28.938Z,95780.00
2018-09-17T12:26:58.022Z,95785.00
2018-09-17T12:29:27.602Z,95785.00
2018-09-17T12:31:56.842Z,95786.00
2018-09-17T12:34:26.034Z,95786.00
2018-09-17T12:36:55.315Z,95782.00
2018-09-17T12:39:24.468Z,95789.00
2018-09-17T12:41:53.677Z,95782.00
2018-09-17T12:44:22.982Z,95790.00
2018-09-17T12:46:52.838Z,95783.00
2018-09-17T12:49:22.189Z,95789.00
2018-09-17T12:51:51.383Z,95787.00
2018-09-17T12:54:20.557Z,95784.00
2018-09-17T12:56:50.771Z,95780.00
2018-09-17T12:59:19.836Z,95775.00
2018-09-17T13:01:49.055Z,95773.00
2018-09-17T13:04:18.290Z,95769.00
2018-09-17T13:06:48.013Z,95774.00
2018-09-17T13:09:18.011Z,95769.00
2018-09-17T13:11:48.028Z,95766.00
2018-09-17T13:14:18.043Z,95769.00
2018-09-17T13:16:48.149Z,95758.00
2018-09-17T13:19:18.158Z,95759.00
2018-09-17T13:21:48.059Z,95750.00
2018-09-17T13:24:18.137Z,95749.00
2018-09-17T13:26:50.258Z,95749.00
2018-09-17T13:29:19.391Z,95751.00
2018-09-17T13:31:48.928Z,95750.00
2018-09-17T13:34:18.306Z,95750.00
2018-09-17T13:36:48.096Z,95739.00
2018-09-17T13:39:18.372Z,95743.00
2018-09-17T13:41:48.507Z,95749.00
2018-09-17T13:44:18.473Z,95742.00
2018-09-17T13:46:48.452Z,95748.00
2018-09-17T13:49:18.467Z,95748.00
2018-09-17T13:51:48.391Z,95744.00
2018-09-17T13:54:18.503Z,95743.00
2018-09-17T13:56:48.549Z,95742.00
2018-09-17T13:59:18.529Z,95737.00
2018-09-17T14:01:48.713Z,95738.00
2018-09-17T14:04:18.638Z,95742.00
2018-09-17T14:06:48.513Z,95733.00
2018-09-17T14:09:18.538Z,95729.00
2018-09-17T14:11:48.593Z,95727.00
2018-09-17T14:14:18.611Z,95729.00
2018-09-17T14:16:48.593Z,95730.00
2018-09-17T14:19:18.705Z,95726.00
2018-09-17T14:21:48.629Z,95726.00
2018-09-17T14:24:18.656Z,95722.00
2018-09-17T14:26:48.697Z,95717.00
2018-09-17T14:29:18.709Z,95721.00
2018-09-17T14:31:54.156Z,95723.00
2018-09-17T14:34:23.402Z,95715.00
2018-09-17T14:36:52.442Z,95709.00
2018-09-17T14:39:21.723Z,95716.00
2018-09-17T14:41:50.917Z,95703.00
2018-09-17T14:44:20.138Z,95699.00
2018-09-17T14:46:50.156Z,95703.00
2018-09-17T14:49:19.363Z,95693.00
2018-09-17T14:51:49.022Z,95694.00
2018-09-17T14:54:19.189Z,95691.00
2018-09-17T14:56:49.104Z,95684.00
2018-09-17T14:59:19.142Z,95682.00
2018-09-17T15:01:48.984Z,95676.00
2018-09-17T15:04:19.255Z,95678.00
2018-09-17T15:06:49.269Z,95682.00
2018-09-17T15:09:19.104Z,95676.00
2018-09-17T15:11:49.222Z,95675.00
2018-09-17T15:14:19.331Z,95677.00
2018-09-17T15:16:49.247Z,95675.00
2018-09-17T15:19:19.303Z,95674.00
2018-09-17T15:21:49.273Z,95681.00
2018-09-17T15:24:19.233Z,95686.00
2018-09-17T15:26:49.394Z,95679.00
2018-09-17T15:29:19.343Z,95679.00
2018-09-17T15:31:49.431Z,95675.00
2018-09-17T15:34:19.468Z,95681.00
2018-09-17T15:36:49.274Z,95667.00
2018-09-17T15:39:19.348Z,95659.00
2018-09-17T15:41:49.470Z,95661.00
2018-09-17T15:44:19.508Z,95658.00
2018-09-17T15:46:49.413Z,95657.00
2018-09-17T15:49:19.394Z,95661.00
2018-09-17T15:51:49.525Z,95657.00
2018-09-17T15:54:19.676Z,95658.00
2018-09-17T15:56:49.533Z,95656.00
2018-09-17T15:59:19.517Z,95655.00
2018-09-17T16:01:49.750Z,95653.00
2018-09-17T16:04:19.681Z,95653.00
2018-09-17T16:06:49.680Z,95641.00
2018-09-17T16:09:19.805Z,95651.00
2018-09-17T16:11:49.871Z,95646.00
2018-09-17T16:14:19.682Z,95649.00
2018-09-17T16:16:49.669Z,95650.00
2018-09-17T16:19:19.618Z,95651.00
2018-09-17T16:21:49.711Z,95653.00
2018-09-17T16:24:19.754Z,95653.00
2018-09-17T16:26:49.785Z,95653.00
2018-09-17T16:29:19.881Z,95655.00
2018-09-17T16:31:49.766Z,95647.00
2018-09-17T16:34:19.822Z,95646.00
2018-09-17T16:36:49.900Z,95648.00
2018-09-17T16:39:19.908Z,95653.00
2018-09-17T16:41:49.987Z,95662.00
2018-09-17T16:44:19.979Z,95657.00
2018-09-17T16:46:50.067Z,95649.00
2018-09-17T16:49:20.178Z,95656.00
2018-09-17T16:51:50.680Z,95661.00
2018-09-17T16:54:20.398Z,95659.00
2018-09-17T16:56:50.370Z,95659.00
2018-09-17T16:59:20.426Z,95656.00
2018-09-17T17:01:50.325Z,95662.00
2018-09-17T17:04:20.452Z,95648.00
2018-09-17T17:06:50.562Z,95650.00
2018-09-17T17:09:20.548Z,95652.00
2018-09-17T17:11:50.765Z,95649.00
2018-09-17T17:14:20.607Z,95659.00
2018-09-17T17:16:50.574Z,95649.00
2018-09-17T17:19:20.654Z,95653.00
2018-09-17T17:21:50.659Z,95649.00
2018-09-17T17:24:20.821Z,95655.00
2018-09-17T17:26:50.888Z,95648.00
2018-09-17T17:29:20.774Z,95645.00
2018-09-17T17:31:50.802Z,95647.00
2018-09-17T17:34:20.888Z,95642.00
2018-09-17T17:36:50.939Z,95647.00
2018-09-17T17:39:21.011Z,95644.00
2018-09-17T17:41:50.899Z,95645.00
2018-09-17T17:44:20.978Z,95649.00
2018-09-17T17:46:50.950Z,95653.00
2018-09-17T17:49:20.952Z,95657.00
2018-09-17T17:51:51.187Z,95653.00
2018-09-17T17:54:21.047Z,95649.00
2018-09-17T17:56:51.022Z,95660.00
2018-09-17T17:59:27.707Z,95656.00
2018-09-17T18:01:57.054Z,95669.00
2018-09-17T18:04:27.370Z,95664.00
2018-09-17T18:06:56.534Z,95664.00
2018-09-17T18:09:25.642Z,95663.00
2018-09-17T18:11:54.878Z,95664.00
2018-09-17T18:14:24.094Z,95672.00
2018-09-17T18:16:53.332Z,95672.00
2018-09-17T18:19:22.506Z,95672.00
2018-09-17T18:21:51.775Z,95665.00
2018-09-17T18:24:21.448Z,95680.00
2018-09-17T18:26:51.469Z,95664.00
2018-09-17T18:29:21.479Z,95671.00
2018-09-17T18:31:51.466Z,95670.00
2018-09-17T18:34:21.554Z,95669.00
2018-09-17T18:36:51.550Z,95675.00
2018-09-17T18:39:21.596Z,95676.00
2018-09-17T18:41:51.735Z,95674.00
2018-09-17T18:44:21.770Z,95676.00
2018-09-17T18:46:51.703Z,95675.00
2018-09-17T18:49:21.794Z,95683.00
2018-09-17T18:51:51.839Z,95679.00
2018-09-17T18:54:21.840Z,95677.00
2018-09-17T18:56:51.830Z,95678.00
2018-09-17T18:59:21.763Z,95692.00
2018-09-17T19:01:51.860Z,95681.00
2018-09-17T19:04:21.977Z,95678.00
2018-09-17T19:06:52.054Z,95683.00
2018-09-17T19:09:26.056Z,95680.00
2018-09-17T19:11:55.319Z,95673.00
2018-09-17T19:14:29.543Z,95672.00
2018-09-17T19:16:58.793Z,95669.00
2018-09-17T19:19:27.911Z,95668.00
2018-09-17T19:22:02.543Z,95668.00
2018-09-17T19:24:31.618Z,95663.00
2018-09-17T19:27:00.748Z,95661.00
2018-09-17T19:29:29.878Z,95669.00
2018-09-17T19:31:59.076Z,95661.00
2018-09-17T19:34:28.270Z,95664.00
2018-09-17T19:37:03.066Z,95655.00
2018-09-17T19:39:37.647Z,95666.00
2018-09-17T19:42:07.107Z,95666.00
2018-09-17T19:44:36.262Z,95663.00
2018-09-17T19:47:05.486Z,95663.00
2018-09-17T19:49:34.852Z,95667.00
2018-09-17T19:52:09.389Z,95660.00
2018-09-17T19:54:38.570Z,95667.00
2018-09-17T19:57:11.838Z,95671.00
2018-09-17T19:59:46.222Z,95666.00
2018-09-17T20:02:15.470Z,95678.00
2018-09-17T20:05:49.627Z,95676.00
2018-09-17T20:08:18.714Z,95676.00
2018-09-17T20:10:47.906Z,95671.00
2018-09-17T20:13:17.055Z,95668.00
2018-09-17T20:15:46.294Z,95667.00
2018-09-17T20:18:15.468Z,95666.00
2018-09-17T20:20:44.556Z,95659.00
2018-09-17T20:23:13.770Z,95666.00
2018-09-17T20:25:42.911Z,95669.00
2018-09-17T20:28:12.128Z,95666.00
2018-09-17T20:30:41.348Z,95657.00
2018-09-17T20:33:10.444Z,95660.00
2018-09-17T20:35:39.677Z,95656.00
2018-09-17T20:38:08.811Z,95648.00
2018-09-17T20:40:38.057Z,95663.00
2018-09-17T20:43:07.202Z,95651.00
2018-09-17T20:45:36.678Z,95647.00
2018-09-17T20:48:05.843Z,95654.00
2018-09-17T20:50:35.015Z,95648.00
2018-09-17T20:53:04.350Z,95648.00
2018-09-17T20:55:33.480Z,95643.00
2018-09-17T20:58:02.771Z,95644.00
2018-09-17T21:00:31.958Z,95642.00
2018-09-17T21:03:01.082Z,95640.00
2018-09-17T21:05:30.230Z,95642.00
2018-09-17T21:07:59.357Z,95641.00
2018-09-17T21:10:28.683Z,95648.00
2018-09-17T21:12:58.004Z,95644.00
2018-09-17T21:15:27.578Z,95639.00
2018-09-17T21:17:56.762Z,95642.00
2018-09-17T21:20:25.928Z,95645.00
2018-09-17T21:22:55.102Z,95636.00
2018-09-17T21:25:24.413Z,95633.00
2018-09-17T21:27:53.623Z,95628.00
2018-09-17T21:30:23.756Z,95624.00
2018-09-17T21:32:53.610Z,95623.00
2018-09-17T21:35:23.770Z,95630.00
2018-09-17T21:37:53.742Z,95624.00
2018-09-17T21:40:23.755Z,95627.00
2018-09-17T21:42:53.749Z,95621.00
2018-09-17T21:45:23.806Z,95619.00
2018-09-17T21:47:53.859Z,95625.00
2018-09-17T21:50:23.906Z,95621.00
2018-09-17T21:52:53.998Z,95615.00
2018-09-17T21:55:23.846Z,95626.00
2018-09-17T21:57:53.939Z,95619.00
2018-09-17T22:00:24.019Z,95621.00
2018-09-17T22:02:54.091Z,95618.00
2018-09-17T22:05:24.037Z,95614.00
2018-09-17T22:07:54.071Z,95613.00
2018-09-17T22:10:24.171Z,95600.00
2018-09-17T22:12:54.118Z,95605.00
2018-09-17T22:15:24.150Z,95605.00
2018-09-17T22:17:54.171Z,95598.00
2018-09-17T22:20:24.348Z,95596.00
2018-09-17T22:22:54.242Z,95607.00
2018-09-17T22:25:24.266Z,95601.00
2018-09-17T22:27:54.261Z,95598.00
2018-09-17T22:30:24.418Z,95601.00
2018-09-17T22:32:54.387Z,95603.00
2018-09-17T22:35:24.458Z,95610.00
2018-09-17T22:37:54.478Z,95594.00
2018-09-17T22:40:24.666Z,95594.00
2018-09-17T22:42:54.583Z,95594.00
2018-09-17T22:45:24.860Z,95602.00
2018-09-17T22:47:54.628Z,95601.00
2018-09-17T22:50:24.829Z,95589.00
2018-09-17T22:52:54.714Z,95587.00
2018-09-17T22:55:24.678Z,95580.00
2018-09-17T22:57:54.582Z,95583.00
2018-09-17T23:00:24.803Z,95591.00
2018-09-17T23:02:54.837Z,95583.00
2018-09-17T23:05:24.882Z,95584.00
2018-09-17T23:07:54.866Z,95587.00
2018-09-17T23:10:24.889Z,95583.00
2018-09-17T23:12:54.981Z,95584.00
2018-09-17T23:15:25.018Z,95581.00
2018-09-17T23:17:54.987Z,95565.00
2018-09-17T23:20:25.053Z,95581.00
2018-09-17T23:22:54.990Z,95580.00
2018-09-17T23:25:24.975Z,95583.00
2018-09-17T23:27:55.109Z,95583.00
2018-09-17T23:30:25.131Z,95572.00
2018-09-17T23:32:55.251Z,95571.00
2018-09-17T23:35:25.286Z,95571.00
2018-09-17T23:37:55.415Z,95587.00
2018-09-17T23:40:25.192Z,95588.00
2018-09-17T23:42:55.275Z,95580.00
2018-09-17T23:45:25.325Z,95579.00
2018-09-17T23:47:55.450Z,95577.00
2018-09-17T23:50:25.349Z,95574.00
2018-09-17T23:52:55.458Z,95577.00
2018-09-17T23:55:25.654Z,95577.00
2018-09-17T23:57:55.355Z,95581.00
